createdAt,value
2023-03-10T00:00:00.484Z,98332.22
2023-03-10T00:02:30.599Z,98330.22
2023-03-10T00:04:57.003Z,98323.41
2023-03-10T00:07:23.346Z,98319.13
2023-03-10T00:09:49.723Z,98313.13
2023-03-10T00:12:16.091Z,98311.78
2023-03-10T00:14:42.426Z,98307.63
2023-03-10T00:17:08.789Z,98295.63
2023-03-10T00:19:35.213Z,98296.16
2023-03-10T00:22:03.603Z,98290.81
2023-03-10T00:24:29.960Z,98297.66
2023-03-10T00:26:56.282Z,98284.53
2023-03-10T00:29:22.647Z,98276.50
2023-03-10T00:31:49.003Z,98270.00
2023-03-10T00:34:15.332Z,98261.84
2023-03-10T00:36:41.664Z,98263.50
2023-03-10T00:39:11.865Z,98259.19
2023-03-10T00:41:41.688Z,98258.84
2023-03-10T00:44:09.480Z,98253.72
2023-03-10T00:46:38.533Z,98260.56
2023-03-10T00:49:07.121Z,98259.94
2023-03-10T00:51:34.883Z,98256.94
2023-03-10T00:54:02.723Z,98247.28
2023-03-10T00:56:29.929Z,98261.50
2023-03-10T00:58:59.037Z,98252.63
2023-03-10T01:01:30.464Z,98258.47
2023-03-10T01:04:00.263Z,98249.16
2023-03-10T01:06:27.444Z,98245.31
2023-03-10T01:08:54.518Z,98251.50
2023-03-10T01:11:24.012Z,98259.50
2023-03-10T01:13:51.451Z,98272.72
2023-03-10T01:16:18.338Z,98269.22
2023-03-10T01:18:44.944Z,98274.91
2023-03-10T01:21:18.317Z,98286.75
2023-03-10T01:23:44.902Z,98289.41
2023-03-10T01:26:11.630Z,98300.94
2023-03-10T01:28:38.416Z,98299.91
2023-03-10T01:31:07.645Z,98300.41
2023-03-10T01:33:35.928Z,98310.59
2023-03-10T01:36:07.920Z,98306.91
2023-03-10T01:38:34.261Z,98315.38
2023-03-10T01:41:00.779Z,98317.19
2023-03-10T01:43:34.946Z,98316.03
2023-03-10T01:46:01.302Z,98309.16
2023-03-10T01:48:35.901Z,98306.00
2023-03-10T01:51:03.528Z,98304.31
2023-03-10T01:53:30.494Z,98318.97
2023-03-10T01:56:02.604Z,98309.97
2023-03-10T01:58:37.873Z,98315.66
2023-03-10T02:01:06.634Z,98314.97
2023-03-10T02:03:40.910Z,98308.94
2023-03-10T02:06:14.909Z,98320.78
2023-03-10T02:08:45.899Z,98318.13
2023-03-10T02:11:14.633Z,98308.91
2023-03-10T02:13:42.078Z,98307.91
2023-03-10T02:16:08.820Z,98307.56
2023-03-10T02:18:35.323Z,98311.06
2023-03-10T02:21:13.494Z,98302.91
2023-03-10T02:24:01.691Z,98299.03
2023-03-10T02:26:56.029Z,98306.03
2023-03-10T02:29:45.458Z,98299.84
2023-03-10T02:32:19.458Z,98293.53
2023-03-10T02:34:45.853Z,98306.66
2023-03-10T02:37:19.675Z,98303.00
2023-03-10T02:39:46.723Z,98296.81
2023-03-10T02:42:13.052Z,98293.00
2023-03-10T02:44:39.835Z,98292.50
2023-03-10T02:47:06.297Z,98281.50
2023-03-10T02:49:35.220Z,98292.16
2023-03-10T02:52:07.544Z,98290.88
2023-03-10T02:54:33.874Z,98294.50
2023-03-10T02:57:00.253Z,98295.03
2023-03-10T02:59:26.884Z,98293.53
2023-03-10T03:01:53.914Z,98293.69
2023-03-10T03:04:20.475Z,98283.00
2023-03-10T03:06:47.014Z,98288.81
2023-03-10T03:09:13.804Z,98289.81
2023-03-10T03:11:40.428Z,98279.66
2023-03-10T03:14:08.796Z,98293.53
2023-03-10T03:16:35.612Z,98287.88
2023-03-10T03:19:05.577Z,98272.41
2023-03-10T03:21:31.995Z,98272.13
2023-03-10T03:23:58.930Z,98273.09
2023-03-10T03:26:26.948Z,98277.28
2023-03-10T03:29:00.207Z,98278.28
2023-03-10T03:31:30.425Z,98267.13
2023-03-10T03:34:10.287Z,98269.47
2023-03-10T03:36:37.899Z,98275.31
2023-03-10T03:39:08.950Z,98276.16
2023-03-10T03:41:36.855Z,98268.28
2023-03-10T03:44:04.105Z,98270.97
2023-03-10T03:46:32.837Z,98273.16
2023-03-10T03:49:00.028Z,98274.16
2023-03-10T03:51:27.193Z,98273.84
2023-03-10T03:53:53.693Z,98268.34
2023-03-10T03:56:21.360Z,98277.66
2023-03-10T03:58:47.812Z,98272.81
2023-03-10T04:01:14.688Z,98267.47
2023-03-10T04:03:46.242Z,98271.00
2023-03-10T04:06:15.729Z,98281.16
2023-03-10T04:08:43.215Z,98271.50
2023-03-10T04:11:09.835Z,98262.81
2023-03-10T04:13:40.017Z,98282.19
2023-03-10T04:16:07.737Z,98279.81
2023-03-10T04:18:36.302Z,98274.66
2023-03-10T04:21:03.418Z,98273.34
2023-03-10T04:23:30.597Z,98265.97
2023-03-10T04:25:57.504Z,98278.34
2023-03-10T04:28:24.260Z,98281.66
2023-03-10T04:30:51.167Z,98278.78
2023-03-10T04:33:21.914Z,98263.09
2023-03-10T04:35:51.232Z,98272.94
2023-03-10T04:38:19.253Z,98267.59
2023-03-10T04:40:53.526Z,98277.47
2023-03-10T04:43:20.709Z,98262.25
2023-03-10T04:45:48.439Z,98255.28
2023-03-10T04:48:15.518Z,98249.25
2023-03-10T04:50:42.456Z,98250.28
2023-03-10T04:53:09.870Z,98253.72
2023-03-10T04:55:36.304Z,98261.91
2023-03-10T04:58:04.710Z,98265.22
2023-03-10T05:00:32.024Z,98258.56
2023-03-10T05:02:58.674Z,98257.06
2023-03-10T05:05:25.244Z,98249.19
2023-03-10T05:07:51.626Z,98246.66
2023-03-10T05:10:19.216Z,98241.81
2023-03-10T05:12:45.855Z,98242.63
2023-03-10T05:15:12.541Z,98250.50
2023-03-10T05:17:38.961Z,98243.16
2023-03-10T05:20:08.754Z,98244.19
2023-03-10T05:22:37.218Z,98233.31
2023-03-10T05:25:05.104Z,98230.94
2023-03-10T05:27:35.947Z,98232.28
2023-03-10T05:30:05.015Z,98232.28
2023-03-10T05:32:34.341Z,98233.59
2023-03-10T05:35:01.156Z,98238.66
2023-03-10T05:37:27.560Z,98239.97
2023-03-10T05:39:54.619Z,98233.25
2023-03-10T05:42:22.207Z,98231.47
2023-03-10T05:44:49.278Z,98228.28
2023-03-10T05:47:18.935Z,98227.41
2023-03-10T05:49:46.260Z,98223.38
2023-03-10T05:52:12.729Z,98229.25
2023-03-10T05:54:40.524Z,98222.59
2023-03-10T05:57:06.988Z,98220.41
2023-03-10T05:59:33.482Z,98225.09
2023-03-10T06:02:00.029Z,98221.94
2023-03-10T06:04:28.320Z,98220.25
2023-03-10T06:06:55.992Z,98229.13
2023-03-10T06:09:22.399Z,98224.78
2023-03-10T06:11:48.756Z,98217.09
2023-03-10T06:14:15.063Z,98220.41
2023-03-10T06:16:41.484Z,98221.56
2023-03-10T06:19:07.844Z,98217.06
2023-03-10T06:21:34.177Z,98217.22
2023-03-10T06:24:00.602Z,98222.41
2023-03-10T06:26:26.983Z,98225.91
2023-03-10T06:28:53.314Z,98229.06
2023-03-10T06:31:22.971Z,98231.06
2023-03-10T06:33:49.339Z,98228.25
2023-03-10T06:36:16.383Z,98225.09
2023-03-10T06:38:43.027Z,98239.47
2023-03-10T06:41:10.039Z,98234.78
2023-03-10T06:43:36.963Z,98243.31
2023-03-10T06:46:05.700Z,98240.47
2023-03-10T06:48:32.353Z,98228.47
2023-03-10T06:50:58.928Z,98239.69
2023-03-10T06:53:26.875Z,98233.66
2023-03-10T06:56:12.024Z,98242.72
2023-03-10T06:58:38.641Z,98252.75
2023-03-10T07:01:06.837Z,98247.06
2023-03-10T07:03:34.374Z,98254.59
2023-03-10T07:06:00.866Z,98242.75
2023-03-10T07:08:28.525Z,98249.13
2023-03-10T07:10:55.857Z,98246.59
2023-03-10T07:13:22.249Z,98254.28
2023-03-10T07:15:48.810Z,98251.28
2023-03-10T07:18:15.563Z,98259.78
2023-03-10T07:20:44.946Z,98258.28
2023-03-10T07:23:11.998Z,98256.31
2023-03-10T07:25:39.169Z,98264.81
2023-03-10T07:28:06.569Z,98266.84
2023-03-10T07:30:34.048Z,98270.00
2023-03-10T07:33:00.508Z,98273.84
2023-03-10T07:35:26.917Z,98268.84
2023-03-10T07:37:53.260Z,98277.38
2023-03-10T07:40:24.650Z,98283.25
2023-03-10T07:42:54.328Z,98282.06
2023-03-10T07:45:22.449Z,98280.56
2023-03-10T07:47:50.776Z,98284.06
2023-03-10T07:50:17.990Z,98284.56
2023-03-10T07:52:44.352Z,98287.09
2023-03-10T07:55:10.839Z,98288.88
2023-03-10T07:57:37.247Z,98290.69
2023-03-10T08:00:05.571Z,98289.50
2023-03-10T08:02:38.483Z,98282.31
2023-03-10T08:05:05.346Z,98280.00
2023-03-10T08:07:31.900Z,98283.00
2023-03-10T08:09:58.367Z,98281.78
2023-03-10T08:12:24.719Z,98281.63
2023-03-10T08:14:52.051Z,98285.97
2023-03-10T08:17:19.606Z,98286.50
2023-03-10T08:19:45.960Z,98285.47
2023-03-10T08:22:12.577Z,98290.47
2023-03-10T08:24:39.377Z,98295.50
2023-03-10T08:27:05.854Z,98286.16
2023-03-10T08:29:32.540Z,98290.47
2023-03-10T08:31:58.966Z,98298.16
2023-03-10T08:34:25.308Z,98296.34
2023-03-10T08:36:51.668Z,98300.16
2023-03-10T08:39:18.129Z,98301.16
2023-03-10T08:41:48.966Z,98301.69
2023-03-10T08:44:17.849Z,98304.47
2023-03-10T08:46:46.877Z,98301.50
2023-03-10T08:49:15.424Z,98303.81
2023-03-10T08:51:42.116Z,98307.84
2023-03-10T08:54:09.032Z,98300.31
2023-03-10T08:56:35.417Z,98303.31
2023-03-10T08:59:01.869Z,98300.81
2023-03-10T09:01:31.941Z,98302.31
2023-03-10T09:03:59.270Z,98304.31
2023-03-10T09:06:26.376Z,98309.53
2023-03-10T09:08:52.784Z,98299.66
2023-03-10T09:11:26.192Z,98305.00
2023-03-10T09:13:52.894Z,98303.22
2023-03-10T09:16:19.282Z,98308.75
2023-03-10T09:18:45.797Z,98312.78
2023-03-10T09:21:14.764Z,98313.47
2023-03-10T09:23:43.174Z,98304.63
2023-03-10T09:26:09.650Z,98306.66
2023-03-10T09:28:36.224Z,98316.34
2023-03-10T09:31:07.967Z,98312.19
2023-03-10T09:33:35.494Z,98308.03
2023-03-10T09:36:07.402Z,98315.03
2023-03-10T09:38:35.314Z,98302.00
2023-03-10T09:41:13.796Z,98314.03
2023-03-10T09:43:50.301Z,98308.03
2023-03-10T09:46:30.272Z,98315.53
2023-03-10T09:49:05.881Z,98328.06
2023-03-10T09:51:32.300Z,98327.25
2023-03-10T09:54:06.237Z,98320.88
2023-03-10T09:56:34.670Z,98327.75
2023-03-10T09:59:24.718Z,98330.25
2023-03-10T10:01:53.769Z,98324.06
2023-03-10T10:04:31.666Z,98325.91
2023-03-10T10:06:59.062Z,98326.94
2023-03-10T10:09:41.976Z,98326.44
2023-03-10T10:12:13.426Z,98324.06
2023-03-10T10:14:47.936Z,98324.00
2023-03-10T10:18:02.938Z,98321.91
2023-03-10T10:20:58.917Z,98321.25
2023-03-10T10:23:38.588Z,98324.28
2023-03-10T10:26:12.015Z,98317.38
2023-03-10T10:28:56.706Z,98319.88
2023-03-10T10:31:29.265Z,98316.53
2023-03-10T10:34:19.988Z,98319.47
2023-03-10T10:36:52.642Z,98319.50
2023-03-10T10:39:32.158Z,98325.78
2023-03-10T10:42:24.876Z,98326.91
2023-03-10T10:44:56.706Z,98327.13
2023-03-10T10:47:28.449Z,98327.44
2023-03-10T10:50:08.374Z,98319.31
2023-03-10T10:52:34.797Z,98326.28
2023-03-10T10:55:02.318Z,98325.09
2023-03-10T10:57:32.820Z,98326.19
2023-03-10T11:00:32.000Z,98325.28
2023-03-10T11:02:58.797Z,98329.03
2023-03-10T11:05:33.719Z,98323.75
2023-03-10T11:08:30.379Z,98316.56
2023-03-10T11:11:04.068Z,98317.44
2023-03-10T11:14:07.273Z,98315.88
2023-03-10T11:16:59.925Z,98314.38
2023-03-10T11:19:51.853Z,98314.69
2023-03-10T11:22:39.737Z,98310.50
2023-03-10T11:25:24.522Z,98302.75
2023-03-10T11:28:21.618Z,98304.28
2023-03-10T11:31:13.162Z,98306.38
2023-03-10T11:34:01.048Z,98307.34
2023-03-10T11:36:53.469Z,98307.97
2023-03-10T11:39:31.892Z,98307.94
2023-03-10T11:42:10.416Z,98303.16
2023-03-10T11:45:13.750Z,98298.44
2023-03-10T11:47:58.664Z,98296.50
2023-03-10T11:50:41.772Z,98297.50
2023-03-10T11:53:19.825Z,98286.50
2023-03-10T11:55:48.568Z,98277.69
2023-03-10T11:58:24.024Z,98280.06
2023-03-10T12:00:53.676Z,98273.16
2023-03-10T12:03:42.121Z,98274.22
2023-03-10T12:06:15.984Z,98275.41
2023-03-10T12:08:42.594Z,98271.00
2023-03-10T12:11:16.733Z,98286.16
2023-03-10T12:13:47.501Z,98280.72
2023-03-10T12:16:26.923Z,98281.59
2023-03-10T12:18:53.662Z,98277.75
2023-03-10T12:21:27.966Z,98281.44
2023-03-10T12:23:56.666Z,98284.97
2023-03-10T12:26:38.124Z,98279.63
2023-03-10T12:29:19.725Z,98277.09
2023-03-10T12:31:51.425Z,98274.56
2023-03-10T12:34:23.545Z,98268.91
2023-03-10T12:36:54.653Z,98281.09
2023-03-10T12:39:38.530Z,98273.06
2023-03-10T12:42:28.890Z,98270.75
2023-03-10T12:45:08.124Z,98263.91
2023-03-10T12:47:55.187Z,98263.03
2023-03-10T12:50:48.877Z,98258.56
2023-03-10T12:53:39.488Z,98254.34
2023-03-10T12:56:19.963Z,98249.69
2023-03-10T12:58:54.725Z,98252.19
2023-03-10T13:01:25.131Z,98252.03
2023-03-10T13:03:53.449Z,98236.00
2023-03-10T13:06:22.023Z,98232.31
2023-03-10T13:08:53.551Z,98236.16
2023-03-10T13:11:19.834Z,98241.16
2023-03-10T13:13:53.044Z,98237.00
2023-03-10T13:16:20.832Z,98232.16
2023-03-10T13:18:56.329Z,98240.19
2023-03-10T13:21:31.580Z,98235.16
2023-03-10T13:24:00.369Z,98222.63
2023-03-10T13:26:27.168Z,98219.28
2023-03-10T13:29:02.240Z,98223.09
2023-03-10T13:31:31.327Z,98215.59
2023-03-10T13:34:12.192Z,98208.91
2023-03-10T13:36:40.028Z,98215.59
2023-03-10T13:39:16.910Z,98202.56
2023-03-10T13:41:46.464Z,98213.25
2023-03-10T13:44:27.449Z,98217.59
2023-03-10T13:46:56.368Z,98218.56
2023-03-10T13:49:26.138Z,98209.41
2023-03-10T13:51:58.103Z,98202.50
2023-03-10T13:54:28.320Z,98212.03
2023-03-10T13:57:15.506Z,98203.88
2023-03-10T13:59:42.305Z,98218.38
2023-03-10T14:02:18.834Z,98217.38
2023-03-10T14:04:50.656Z,98210.72
2023-03-10T14:07:29.439Z,98203.91
2023-03-10T14:10:04.658Z,98206.38
2023-03-10T14:12:49.398Z,98204.06
2023-03-10T14:15:18.781Z,98204.41
2023-03-10T14:18:06.485Z,98197.69
2023-03-10T14:20:34.241Z,98203.91
2023-03-10T14:23:23.241Z,98206.53
2023-03-10T14:25:54.444Z,98208.22
2023-03-10T14:28:26.489Z,98215.38
2023-03-10T14:30:53.925Z,98210.38
2023-03-10T14:33:20.768Z,98206.88
2023-03-10T14:35:47.653Z,98210.22
2023-03-10T14:38:14.080Z,98206.19
2023-03-10T14:40:49.217Z,98200.72
2023-03-10T14:43:19.717Z,98201.72
2023-03-10T14:45:48.496Z,98210.91
2023-03-10T14:48:19.791Z,98194.19
2023-03-10T14:50:47.408Z,98203.03
2023-03-10T14:53:16.554Z,98202.03
2023-03-10T14:55:47.591Z,98207.84
2023-03-10T14:58:18.208Z,98218.31
2023-03-10T15:00:44.585Z,98213.63
2023-03-10T15:03:12.335Z,98233.09
2023-03-10T15:05:48.371Z,98228.56
2023-03-10T15:08:16.516Z,98231.56
2023-03-10T15:10:47.870Z,98246.03
2023-03-10T15:13:14.514Z,98234.53
2023-03-10T15:15:43.274Z,98253.97
2023-03-10T15:18:12.367Z,98260.00
2023-03-10T15:20:38.713Z,98271.72
2023-03-10T15:23:05.245Z,98267.31
2023-03-10T15:25:31.647Z,98268.78
2023-03-10T15:27:58.075Z,98266.88
2023-03-10T15:30:31.024Z,98257.44
2023-03-10T15:32:57.537Z,98246.63
2023-03-10T15:35:24.302Z,98251.28
2023-03-10T15:37:52.092Z,98245.28
2023-03-10T15:40:24.679Z,98239.56
2023-03-10T15:42:51.681Z,98244.06
2023-03-10T15:45:18.831Z,98248.47
2023-03-10T15:47:46.118Z,98247.00
2023-03-10T15:50:14.009Z,98259.44
2023-03-10T15:52:52.106Z,98258.00
2023-03-10T15:55:18.682Z,98235.00
2023-03-10T15:57:47.798Z,98239.13
2023-03-10T16:00:16.810Z,98251.22
2023-03-10T16:02:46.937Z,98259.19
2023-03-10T16:05:13.786Z,98251.44
2023-03-10T16:07:40.165Z,98276.38
2023-03-10T16:10:09.855Z,98277.22
2023-03-10T16:12:36.219Z,98291.16
2023-03-10T16:15:02.593Z,98303.75
2023-03-10T16:17:29.381Z,98334.13
2023-03-10T16:19:55.892Z,98363.41
2023-03-10T16:22:22.791Z,98381.16
2023-03-10T16:24:49.114Z,98411.38
2023-03-10T16:27:15.968Z,98430.38
2023-03-10T16:29:42.822Z,98456.09
2023-03-10T16:32:09.953Z,98474.06
2023-03-10T16:34:36.339Z,98499.72
2023-03-10T16:37:02.753Z,98508.63
2023-03-10T16:39:32.558Z,98532.19
2023-03-10T16:41:59.314Z,98558.38
2023-03-10T16:44:26.082Z,98583.13
2023-03-10T16:46:52.474Z,98605.25
2023-03-10T16:49:19.013Z,98622.88
2023-03-10T16:51:47.090Z,98667.81
2023-03-10T16:54:17.865Z,98686.81
2023-03-10T16:56:47.588Z,98696.69
2023-03-10T16:59:19.980Z,98710.63
2023-03-10T17:01:47.396Z,98739.47
2023-03-10T17:04:13.873Z,98765.13
2023-03-10T17:06:40.891Z,98778.41
2023-03-10T17:09:09.119Z,98786.47
2023-03-10T17:11:38.528Z,98814.00
2023-03-10T17:14:07.619Z,98831.25
2023-03-10T17:16:36.923Z,98850.16
2023-03-10T17:19:10.263Z,98852.03
2023-03-10T17:21:39.256Z,98883.13
2023-03-10T17:24:07.639Z,98881.53
2023-03-10T17:26:35.306Z,98902.03
2023-03-10T17:29:01.703Z,98921.56
2023-03-10T17:31:29.114Z,98947.06
2023-03-10T17:34:00.013Z,98953.50
2023-03-10T17:36:26.801Z,98963.94
2023-03-10T17:38:58.714Z,98969.97
2023-03-10T17:41:26.264Z,98982.56
2023-03-10T17:43:54.229Z,99001.13
2023-03-10T17:46:24.075Z,99019.66
2023-03-10T17:48:53.661Z,99023.22
2023-03-10T17:51:28.673Z,99035.47
2023-03-10T17:53:57.929Z,99060.16
2023-03-10T17:56:25.442Z,99076.09
2023-03-10T17:58:56.801Z,99090.22
2023-03-10T18:01:27.196Z,99096.56
2023-03-10T18:03:56.003Z,99112.22
2023-03-10T18:06:25.265Z,99135.72
2023-03-10T18:08:53.709Z,99163.13
2023-03-10T18:11:22.192Z,99162.34
2023-03-10T18:13:48.983Z,99175.50
2023-03-10T18:16:21.863Z,99200.13
2023-03-10T18:18:48.473Z,99224.59
2023-03-10T18:21:16.808Z,99221.72
2023-03-10T18:23:43.780Z,99244.53
2023-03-10T18:26:12.726Z,99250.50
2023-03-10T18:28:39.900Z,99284.72
2023-03-10T18:31:08.799Z,99274.97
2023-03-10T18:33:35.804Z,99306.56
2023-03-10T18:36:05.165Z,99314.28
2023-03-10T18:38:31.557Z,99352.84
2023-03-10T18:41:00.129Z,99366.84
2023-03-10T18:43:28.985Z,99394.97
2023-03-10T18:45:55.876Z,99389.69
2023-03-10T18:48:25.513Z,99417.66
2023-03-10T18:50:53.202Z,99423.81
2023-03-10T18:53:19.705Z,99431.16
2023-03-10T18:55:46.037Z,99450.53
2023-03-10T18:58:12.456Z,99443.94
2023-03-10T19:00:39.528Z,99461.59
2023-03-10T19:03:06.173Z,99469.50
2023-03-10T19:05:32.545Z,99473.81
2023-03-10T19:07:58.985Z,99478.25
2023-03-10T19:10:25.297Z,99493.25
2023-03-10T19:12:51.666Z,99498.44
2023-03-10T19:15:18.563Z,99516.09
2023-03-10T19:17:45.592Z,99518.72
2023-03-10T19:20:13.503Z,99536.50
2023-03-10T19:22:40.214Z,99533.09
2023-03-10T19:25:08.999Z,99547.09
2023-03-10T19:27:39.654Z,99547.09
2023-03-10T19:30:17.891Z,99554.94
2023-03-10T19:32:44.844Z,99554.19
2023-03-10T19:35:11.958Z,99562.94
2023-03-10T19:37:39.326Z,99564.66
2023-03-10T19:40:08.394Z,99575.19
2023-03-10T19:42:36.807Z,99595.16
2023-03-10T19:45:03.674Z,99596.03
2023-03-10T19:47:30.955Z,99613.50
2023-03-10T19:49:57.351Z,99611.59
2023-03-10T19:52:23.876Z,99630.78
2023-03-10T19:54:51.625Z,99650.84
2023-03-10T19:57:18.021Z,99656.00
2023-03-10T19:59:44.394Z,99655.00
2023-03-10T20:02:15.502Z,99658.31
2023-03-10T20:04:42.762Z,99670.56
2023-03-10T20:07:09.531Z,99683.75
2023-03-10T20:09:35.955Z,99681.00
2023-03-10T20:12:02.848Z,99693.28
2023-03-10T20:14:29.230Z,99697.69
2023-03-10T20:16:55.664Z,99706.28
2023-03-10T20:19:22.778Z,99696.59
2023-03-10T20:21:50.453Z,99711.59
2023-03-10T20:24:18.096Z,99720.28
2023-03-10T20:26:44.747Z,99723.72
2023-03-10T20:29:11.673Z,99726.34
2023-03-10T20:31:38.338Z,99724.44
2023-03-10T20:34:06.265Z,99731.41
2023-03-10T20:36:33.093Z,99742.00
2023-03-10T20:38:59.453Z,99739.16
2023-03-10T20:41:25.850Z,99738.31
2023-03-10T20:43:53.292Z,99749.69
2023-03-10T20:46:19.959Z,99756.69
2023-03-10T20:48:49.674Z,99757.53
2023-03-10T20:51:18.645Z,99750.28
2023-03-10T20:53:45.386Z,99759.09
2023-03-10T20:56:12.154Z,99761.81
2023-03-10T20:58:38.615Z,99768.75
2023-03-10T21:01:05.323Z,99765.38
2023-03-10T21:03:31.764Z,99775.03
2023-03-10T21:05:58.157Z,99778.59
2023-03-10T21:08:24.572Z,99779.53
2023-03-10T21:10:51.557Z,99788.94
2023-03-10T21:13:17.952Z,99789.50
2023-03-10T21:15:44.323Z,99797.53
2023-03-10T21:18:10.659Z,99805.22
2023-03-10T21:20:36.968Z,99812.47
2023-03-10T21:23:03.304Z,99812.47
2023-03-10T21:25:29.781Z,99822.03
2023-03-10T21:27:58.731Z,99824.66
2023-03-10T21:30:30.029Z,99822.16
2023-03-10T21:32:57.463Z,99825.59
2023-03-10T21:35:25.353Z,99835.34
2023-03-10T21:37:51.763Z,99836.81
2023-03-10T21:40:20.157Z,99841.31
2023-03-10T21:42:49.390Z,99843.09
2023-03-10T21:45:21.455Z,99849.94
2023-03-10T21:47:47.893Z,99855.06
2023-03-10T21:50:15.403Z,99860.28
2023-03-10T21:52:42.164Z,99868.13
2023-03-10T21:55:15.887Z,99872.41
2023-03-10T21:57:42.254Z,99876.56
2023-03-10T22:00:09.602Z,99881.06
2023-03-10T22:02:37.101Z,99887.25
2023-03-10T22:05:06.048Z,99891.53
2023-03-10T22:07:33.462Z,99901.09
2023-03-10T22:09:59.827Z,99899.50
2023-03-10T22:12:26.194Z,99904.91
2023-03-10T22:14:56.224Z,99912.63
2023-03-10T22:17:23.940Z,99924.19
2023-03-10T22:19:51.692Z,99933.69
2023-03-10T22:22:18.023Z,99933.75
2023-03-10T22:24:44.356Z,99938.06
2023-03-10T22:27:10.711Z,99933.53
2023-03-10T22:29:37.041Z,99946.00
2023-03-10T22:32:04.357Z,99948.50
2023-03-10T22:34:30.835Z,99947.72
2023-03-10T22:36:57.291Z,99952.88
2023-03-10T22:39:24.452Z,99957.25
2023-03-10T22:41:50.830Z,99961.69
2023-03-10T22:44:17.248Z,99966.94
2023-03-10T22:46:45.161Z,99976.88
2023-03-10T22:49:11.814Z,99987.38
2023-03-10T22:51:38.866Z,99993.56
2023-03-10T22:54:05.250Z,99995.31
2023-03-10T22:56:31.565Z,100000.69
2023-03-10T22:58:57.960Z,100007.97
2023-03-10T23:01:24.308Z,100014.09
2023-03-10T23:03:50.732Z,100019.75
2023-03-10T23:06:17.157Z,100023.44
2023-03-10T23:08:43.883Z,100020.91
2023-03-10T23:11:12.083Z,100033.19
2023-03-10T23:13:38.602Z,100033.84
2023-03-10T23:16:05.543Z,100041.78
2023-03-10T23:18:31.932Z,100048.19
2023-03-10T23:20:58.655Z,100057.38
2023-03-10T23:23:24.998Z,100050.25
2023-03-10T23:25:51.767Z,100055.50
2023-03-10T23:28:20.468Z,100051.78
2023-03-10T23:30:48.497Z,100060.53
2023-03-10T23:33:19.103Z,100060.59
2023-03-10T23:35:46.307Z,100065.09
2023-03-10T23:38:12.840Z,100064.16
2023-03-10T23:40:39.156Z,100069.28
2023-03-10T23:43:08.032Z,100067.41
2023-03-10T23:45:36.560Z,100074.31
2023-03-10T23:48:06.107Z,100081.38
2023-03-10T23:50:35.576Z,100084.78
2023-03-10T23:53:03.490Z,100094.47
2023-03-10T23:55:34.013Z,100097.84
2023-03-10T23:58:00.853Z,100109.38
